sensor_id;sensor_type;location;lat;lon;timestamp;P1;durP1;ratioP1;P2;durP2;ratioP2
20894;SDS011;10607;42.066;24.742;2022-12-11T00:00:13;58.40;;;25.47;;
20894;SDS011;10607;42.066;24.742;2022-12-11T00:02:39;69.30;;;30.13;;
20894;SDS011;10607;42.066;24.742;2022-12-11T00:05:05;54.87;;;29.63;;
20894;SDS011;10607;42.066;24.742;2022-12-11T00:07:30;52.33;;;27.03;;
20894;SDS011;10607;42.066;24.742;2022-12-11T00:09:55;52.30;;;28.07;;
20894;SDS011;10607;42.066;24.742;2022-12-11T00:12:20;68.13;;;30.87;;
20894;SDS011;10607;42.066;24.742;2022-12-11T00:14:46;57.13;;;27.40;;
20894;SDS011;10607;42.066;24.742;2022-12-11T00:17:11;58.63;;;26.33;;
20894;SDS011;10607;42.066;24.742;2022-12-11T00:19:37;40.00;;;20.53;;
20894;SDS011;10607;42.066;24.742;2022-12-11T00:22:02;29.43;;;13.53;;
20894;SDS011;10607;42.066;24.742;2022-12-11T00:24:27;21.83;;;10.73;;
20894;SDS011;10607;42.066;24.742;2022-12-11T00:26:53;20.07;;;9.40;;
20894;SDS011;10607;42.066;24.742;2022-12-11T00:29:18;18.07;;;8.83;;
20894;SDS011;10607;42.066;24.742;2022-12-11T00:31:43;20.63;;;9.90;;
20894;SDS011;10607;42.066;24.742;2022-12-11T00:34:08;17.65;;;10.52;;
20894;SDS011;10607;42.066;24.742;2022-12-11T00:36:36;21.27;;;10.53;;
20894;SDS011;10607;42.066;24.742;2022-12-11T00:39:02;16.60;;;9.67;;
20894;SDS011;10607;42.066;24.742;2022-12-11T00:41:27;20.48;;;9.50;;
20894;SDS011;10607;42.066;24.742;2022-12-11T00:43:53;17.90;;;8.10;;
20894;SDS011;10607;42.066;24.742;2022-12-11T00:46:18;52.97;;;30.60;;
20894;SDS011;10607;42.066;24.742;2022-12-11T00:48:43;61.53;;;37.20;;
20894;SDS011;10607;42.066;24.742;2022-12-11T00:51:10;81.33;;;41.20;;
20894;SDS011;10607;42.066;24.742;2022-12-11T00:53:35;74.87;;;42.17;;
20894;SDS011;10607;42.066;24.742;2022-12-11T00:56:01;83.27;;;45.90;;
20894;SDS011;10607;42.066;24.742;2022-12-11T00:58:32;89.63;;;47.67;;
20894;SDS011;10607;42.066;24.742;2022-12-11T01:01:03;98.77;;;50.70;;
20894;SDS011;10607;42.066;24.742;2022-12-11T01:03:29;91.73;;;47.70;;
20894;SDS011;10607;42.066;24.742;2022-12-11T01:05:54;103.13;;;51.47;;
20894;SDS011;10607;42.066;24.742;2022-12-11T01:08:19;104.00;;;51.87;;
20894;SDS011;10607;42.066;24.742;2022-12-11T01:10:45;99.20;;;53.17;;
20894;SDS011;10607;42.066;24.742;2022-12-11T01:13:10;109.20;;;51.13;;
20894;SDS011;10607;42.066;24.742;2022-12-11T01:15:40;98.00;;;49.40;;
20894;SDS011;10607;42.066;24.742;2022-12-11T01:18:05;97.60;;;50.80;;
20894;SDS011;10607;42.066;24.742;2022-12-11T01:20:30;97.87;;;46.53;;
20894;SDS011;10607;42.066;24.742;2022-12-11T01:22:56;88.23;;;48.23;;
20894;SDS011;10607;42.066;24.742;2022-12-11T01:25:22;86.57;;;45.13;;
20894;SDS011;10607;42.066;24.742;2022-12-11T01:27:51;79.47;;;42.03;;
20894;SDS011;10607;42.066;24.742;2022-12-11T01:30:16;83.30;;;39.13;;
20894;SDS011;10607;42.066;24.742;2022-12-11T01:32:41;70.40;;;34.47;;
20894;SDS011;10607;42.066;24.742;2022-12-11T01:35:07;76.53;;;37.50;;
20894;SDS011;10607;42.066;24.742;2022-12-11T01:37:32;67.23;;;33.63;;
20894;SDS011;10607;42.066;24.742;2022-12-11T01:39:58;55.87;;;32.03;;
20894;SDS011;10607;42.066;24.742;2022-12-11T01:42:24;70.97;;;34.47;;
20894;SDS011;10607;42.066;24.742;2022-12-11T01:47:14;56.17;;;30.47;;
20894;SDS011;10607;42.066;24.742;2022-12-11T01:49:39;54.43;;;29.87;;
20894;SDS011;10607;42.066;24.742;2022-12-11T01:52:10;50.60;;;26.43;;
20894;SDS011;10607;42.066;24.742;2022-12-11T01:54:37;45.37;;;25.93;;
20894;SDS011;10607;42.066;24.742;2022-12-11T01:57:04;48.33;;;23.90;;
20894;SDS011;10607;42.066;24.742;2022-12-11T01:59:31;50.73;;;25.77;;
20894;SDS011;10607;42.066;24.742;2022-12-11T02:02:20;46.03;;;22.80;;
20894;SDS011;10607;42.066;24.742;2022-12-11T02:04:46;41.27;;;21.77;;
20894;SDS011;10607;42.066;24.742;2022-12-11T02:07:12;37.53;;;19.37;;
20894;SDS011;10607;42.066;24.742;2022-12-11T02:09:38;37.30;;;20.30;;
20894;SDS011;10607;42.066;24.742;2022-12-11T02:20:02;39.00;;;21.97;;
20894;SDS011;10607;42.066;24.742;2022-12-11T02:25:39;47.22;;;25.65;;
20894;SDS011;10607;42.066;24.742;2022-12-11T02:30:50;49.03;;;24.93;;
20894;SDS011;10607;42.066;24.742;2022-12-11T02:33:19;46.60;;;26.42;;
20894;SDS011;10607;42.066;24.742;2022-12-11T02:35:45;46.70;;;26.50;;
20894;SDS011;10607;42.066;24.742;2022-12-11T02:38:18;47.33;;;24.90;;
20894;SDS011;10607;42.066;24.742;2022-12-11T02:40:43;52.47;;;25.97;;
20894;SDS011;10607;42.066;24.742;2022-12-11T02:43:11;50.43;;;25.43;;
20894;SDS011;10607;42.066;24.742;2022-12-11T02:45:38;56.57;;;25.23;;
20894;SDS011;10607;42.066;24.742;2022-12-11T02:48:04;43.87;;;25.10;;
20894;SDS011;10607;42.066;24.742;2022-12-11T02:50:30;56.27;;;26.80;;
20894;SDS011;10607;42.066;24.742;2022-12-11T02:52:57;41.97;;;24.53;;
20894;SDS011;10607;42.066;24.742;2022-12-11T02:55:24;42.93;;;25.70;;
20894;SDS011;10607;42.066;24.742;2022-12-11T02:57:50;53.53;;;27.30;;
20894;SDS011;10607;42.066;24.742;2022-12-11T03:00:17;49.93;;;26.17;;
20894;SDS011;10607;42.066;24.742;2022-12-11T03:02:43;48.10;;;24.83;;
20894;SDS011;10607;42.066;24.742;2022-12-11T03:05:09;48.00;;;23.70;;
20894;SDS011;10607;42.066;24.742;2022-12-11T03:07:36;51.80;;;25.50;;
20894;SDS011;10607;42.066;24.742;2022-12-11T03:10:03;45.83;;;23.87;;
20894;SDS011;10607;42.066;24.742;2022-12-11T03:12:32;41.67;;;18.10;;
20894;SDS011;10607;42.066;24.742;2022-12-11T03:14:58;42.30;;;19.63;;
20894;SDS011;10607;42.066;24.742;2022-12-11T03:22:40;31.67;;;14.77;;
20894;SDS011;10607;42.066;24.742;2022-12-11T03:25:08;37.43;;;14.70;;
20894;SDS011;10607;42.066;24.742;2022-12-11T03:27:54;24.90;;;10.57;;
20894;SDS011;10607;42.066;24.742;2022-12-11T03:30:21;27.85;;;13.02;;
20894;SDS011;10607;42.066;24.742;2022-12-11T03:35:16;20.08;;;12.30;;
20894;SDS011;10607;42.066;24.742;2022-12-11T03:37:42;26.00;;;13.38;;
20894;SDS011;10607;42.066;24.742;2022-12-11T03:40:12;36.07;;;14.10;;
20894;SDS011;10607;42.066;24.742;2022-12-11T03:42:39;29.27;;;13.47;;
20894;SDS011;10607;42.066;24.742;2022-12-11T03:45:06;21.67;;;10.83;;
20894;SDS011;10607;42.066;24.742;2022-12-11T03:47:32;23.08;;;8.10;;
20894;SDS011;10607;42.066;24.742;2022-12-11T03:49:58;17.27;;;6.18;;
20894;SDS011;10607;42.066;24.742;2022-12-11T03:52:24;22.20;;;5.60;;
20894;SDS011;10607;42.066;24.742;2022-12-11T03:54:51;14.25;;;5.18;;
20894;SDS011;10607;42.066;24.742;2022-12-11T03:57:18;13.90;;;5.80;;
20894;SDS011;10607;42.066;24.742;2022-12-11T03:59:45;12.73;;;5.07;;
20894;SDS011;10607;42.066;24.742;2022-12-11T04:02:10;10.07;;;5.07;;
20894;SDS011;10607;42.066;24.742;2022-12-11T04:04:36;17.60;;;6.53;;
20894;SDS011;10607;42.066;24.742;2022-12-11T04:07:02;21.42;;;7.95;;
20894;SDS011;10607;42.066;24.742;2022-12-11T04:09:27;15.88;;;7.20;;
20894;SDS011;10607;42.066;24.742;2022-12-11T04:11:53;26.20;;;8.55;;
20894;SDS011;10607;42.066;24.742;2022-12-11T04:14:18;22.95;;;11.00;;
20894;SDS011;10607;42.066;24.742;2022-12-11T04:17:01;20.38;;;9.13;;
20894;SDS011;10607;42.066;24.742;2022-12-11T04:19:27;26.13;;;9.52;;
20894;SDS011;10607;42.066;24.742;2022-12-11T04:22:11;16.67;;;7.82;;
20894;SDS011;10607;42.066;24.742;2022-12-11T04:24:55;26.30;;;7.93;;
20894;SDS011;10607;42.066;24.742;2022-12-11T04:27:20;17.13;;;6.63;;
20894;SDS011;10607;42.066;24.742;2022-12-11T04:30:05;20.30;;;8.07;;
20894;SDS011;10607;42.066;24.742;2022-12-11T04:32:30;16.08;;;7.38;;
20894;SDS011;10607;42.066;24.742;2022-12-11T04:34:56;13.25;;;5.70;;
20894;SDS011;10607;42.066;24.742;2022-12-11T04:37:21;12.45;;;4.40;;
20894;SDS011;10607;42.066;24.742;2022-12-11T04:39:46;9.10;;;4.95;;
20894;SDS011;10607;42.066;24.742;2022-12-11T04:42:11;11.32;;;4.32;;
20894;SDS011;10607;42.066;24.742;2022-12-11T04:44:37;11.85;;;5.13;;
20894;SDS011;10607;42.066;24.742;2022-12-11T04:47:02;19.10;;;8.10;;
20894;SDS011;10607;42.066;24.742;2022-12-11T04:49:27;27.50;;;9.95;;
20894;SDS011;10607;42.066;24.742;2022-12-11T04:51:52;22.63;;;10.05;;
20894;SDS011;10607;42.066;24.742;2022-12-11T04:54:18;21.52;;;10.80;;
20894;SDS011;10607;42.066;24.742;2022-12-11T04:56:43;26.42;;;9.82;;
20894;SDS011;10607;42.066;24.742;2022-12-11T04:59:08;23.90;;;8.45;;
20894;SDS011;10607;42.066;24.742;2022-12-11T05:01:34;22.00;;;9.07;;
20894;SDS011;10607;42.066;24.742;2022-12-11T05:03:59;21.27;;;9.05;;
20894;SDS011;10607;42.066;24.742;2022-12-11T05:06:24;24.58;;;11.02;;
20894;SDS011;10607;42.066;24.742;2022-12-11T05:08:49;24.17;;;9.85;;
20894;SDS011;10607;42.066;24.742;2022-12-11T05:11:15;24.40;;;10.52;;
20894;SDS011;10607;42.066;24.742;2022-12-11T05:13:40;24.50;;;10.20;;
20894;SDS011;10607;42.066;24.742;2022-12-11T05:16:06;23.13;;;11.20;;
20894;SDS011;10607;42.066;24.742;2022-12-11T05:18:32;22.65;;;8.63;;
20894;SDS011;10607;42.066;24.742;2022-12-11T05:20:58;18.75;;;7.57;;
20894;SDS011;10607;42.066;24.742;2022-12-11T05:23:24;26.33;;;13.45;;
20894;SDS011;10607;42.066;24.742;2022-12-11T05:25:53;56.78;;;26.60;;
20894;SDS011;10607;42.066;24.742;2022-12-11T05:28:19;44.78;;;18.67;;
20894;SDS011;10607;42.066;24.742;2022-12-11T05:30:44;19.58;;;7.82;;
20894;SDS011;10607;42.066;24.742;2022-12-11T05:33:09;17.50;;;6.72;;
20894;SDS011;10607;42.066;24.742;2022-12-11T05:35:35;11.05;;;4.20;;
20894;SDS011;10607;42.066;24.742;2022-12-11T05:38:00;13.40;;;5.07;;
20894;SDS011;10607;42.066;24.742;2022-12-11T05:40:25;12.82;;;4.85;;
20894;SDS011;10607;42.066;24.742;2022-12-11T05:42:50;12.23;;;6.60;;
20894;SDS011;10607;42.066;24.742;2022-12-11T05:45:16;13.57;;;6.25;;
20894;SDS011;10607;42.066;24.742;2022-12-11T05:47:41;13.90;;;6.80;;
20894;SDS011;10607;42.066;24.742;2022-12-11T05:50:07;18.13;;;7.65;;
20894;SDS011;10607;42.066;24.742;2022-12-11T05:52:32;16.95;;;7.38;;
20894;SDS011;10607;42.066;24.742;2022-12-11T05:54:57;19.20;;;8.93;;
20894;SDS011;10607;42.066;24.742;2022-12-11T05:57:23;17.15;;;7.53;;
20894;SDS011;10607;42.066;24.742;2022-12-11T05:59:48;15.45;;;6.05;;
20894;SDS011;10607;42.066;24.742;2022-12-11T06:02:13;13.93;;;5.57;;
20894;SDS011;10607;42.066;24.742;2022-12-11T06:04:38;20.10;;;6.18;;
20894;SDS011;10607;42.066;24.742;2022-12-11T06:07:04;20.80;;;6.95;;
20894;SDS011;10607;42.066;24.742;2022-12-11T06:09:29;11.55;;;5.47;;
20894;SDS011;10607;42.066;24.742;2022-12-11T06:11:54;12.77;;;5.28;;
20894;SDS011;10607;42.066;24.742;2022-12-11T06:14:20;9.55;;;4.18;;
20894;SDS011;10607;42.066;24.742;2022-12-11T06:16:45;8.00;;;3.78;;
20894;SDS011;10607;42.066;24.742;2022-12-11T06:19:14;15.77;;;4.88;;
20894;SDS011;10607;42.066;24.742;2022-12-11T06:21:39;17.08;;;5.93;;
20894;SDS011;10607;42.066;24.742;2022-12-11T06:24:05;18.83;;;8.60;;
20894;SDS011;10607;42.066;24.742;2022-12-11T06:26:30;14.60;;;7.35;;
20894;SDS011;10607;42.066;24.742;2022-12-11T06:28:56;11.40;;;6.03;;
20894;SDS011;10607;42.066;24.742;2022-12-11T06:31:21;15.38;;;5.80;;
20894;SDS011;10607;42.066;24.742;2022-12-11T06:33:47;12.50;;;5.55;;
20894;SDS011;10607;42.066;24.742;2022-12-11T06:36:14;18.30;;;6.10;;
20894;SDS011;10607;42.066;24.742;2022-12-11T06:38:39;8.73;;;4.75;;
20894;SDS011;10607;42.066;24.742;2022-12-11T06:41:05;7.47;;;3.85;;
20894;SDS011;10607;42.066;24.742;2022-12-11T06:43:31;12.77;;;3.92;;
20894;SDS011;10607;42.066;24.742;2022-12-11T06:45:56;17.98;;;4.00;;
20894;SDS011;10607;42.066;24.742;2022-12-11T06:48:23;11.13;;;3.47;;
20894;SDS011;10607;42.066;24.742;2022-12-11T06:50:48;12.30;;;6.63;;
20894;SDS011;10607;42.066;24.742;2022-12-11T06:53:14;26.85;;;12.45;;
20894;SDS011;10607;42.066;24.742;2022-12-11T06:55:39;18.92;;;7.80;;
20894;SDS011;10607;42.066;24.742;2022-12-11T06:58:05;17.20;;;7.13;;
20894;SDS011;10607;42.066;24.742;2022-12-11T07:00:30;12.38;;;6.00;;
20894;SDS011;10607;42.066;24.742;2022-12-11T07:02:56;18.40;;;8.02;;
20894;SDS011;10607;42.066;24.742;2022-12-11T07:05:21;27.67;;;14.63;;
20894;SDS011;10607;42.066;24.742;2022-12-11T07:07:47;27.70;;;14.60;;
20894;SDS011;10607;42.066;24.742;2022-12-11T07:10:13;22.25;;;10.88;;
20894;SDS011;10607;42.066;24.742;2022-12-11T07:12:38;22.45;;;12.80;;
20894;SDS011;10607;42.066;24.742;2022-12-11T07:15:04;22.25;;;10.43;;
20894;SDS011;10607;42.066;24.742;2022-12-11T07:17:29;21.67;;;9.98;;
20894;SDS011;10607;42.066;24.742;2022-12-11T07:19:54;26.30;;;16.40;;
20894;SDS011;10607;42.066;24.742;2022-12-11T07:22:20;32.70;;;16.60;;
20894;SDS011;10607;42.066;24.742;2022-12-11T07:24:45;36.13;;;23.63;;
20894;SDS011;10607;42.066;24.742;2022-12-11T07:27:10;32.30;;;14.52;;
20894;SDS011;10607;42.066;24.742;2022-12-11T07:29:36;19.65;;;8.85;;
20894;SDS011;10607;42.066;24.742;2022-12-11T07:32:01;14.55;;;5.30;;
20894;SDS011;10607;42.066;24.742;2022-12-11T07:34:26;11.25;;;5.75;;
20894;SDS011;10607;42.066;24.742;2022-12-11T07:36:52;35.60;;;21.63;;
20894;SDS011;10607;42.066;24.742;2022-12-11T07:39:17;11.48;;;5.82;;
20894;SDS011;10607;42.066;24.742;2022-12-11T07:41:42;24.83;;;11.40;;
20894;SDS011;10607;42.066;24.742;2022-12-11T07:44:07;20.60;;;10.60;;
20894;SDS011;10607;42.066;24.742;2022-12-11T07:46:33;16.88;;;9.88;;
20894;SDS011;10607;42.066;24.742;2022-12-11T07:48:58;24.55;;;10.27;;
20894;SDS011;10607;42.066;24.742;2022-12-11T07:51:30;21.80;;;8.77;;
20894;SDS011;10607;42.066;24.742;2022-12-11T07:53:57;12.60;;;3.83;;
20894;SDS011;10607;42.066;24.742;2022-12-11T07:56:23;11.48;;;4.07;;
20894;SDS011;10607;42.066;24.742;2022-12-11T07:58:48;12.50;;;5.88;;
20894;SDS011;10607;42.066;24.742;2022-12-11T08:01:14;25.00;;;12.40;;
20894;SDS011;10607;42.066;24.742;2022-12-11T08:03:40;11.93;;;7.03;;
20894;SDS011;10607;42.066;24.742;2022-12-11T08:06:06;8.82;;;5.05;;
20894;SDS011;10607;42.066;24.742;2022-12-11T08:08:31;13.55;;;5.13;;
20894;SDS011;10607;42.066;24.742;2022-12-11T08:11:03;12.55;;;6.50;;
20894;SDS011;10607;42.066;24.742;2022-12-11T08:13:29;17.30;;;7.90;;
20894;SDS011;10607;42.066;24.742;2022-12-11T08:15:54;15.48;;;6.30;;
20894;SDS011;10607;42.066;24.742;2022-12-11T08:18:19;11.68;;;5.28;;
20894;SDS011;10607;42.066;24.742;2022-12-11T08:20:45;11.18;;;4.65;;
20894;SDS011;10607;42.066;24.742;2022-12-11T08:23:10;6.53;;;3.42;;
20894;SDS011;10607;42.066;24.742;2022-12-11T08:25:35;8.27;;;3.92;;
20894;SDS011;10607;42.066;24.742;2022-12-11T08:28:01;10.90;;;4.72;;
20894;SDS011;10607;42.066;24.742;2022-12-11T08:30:26;13.02;;;6.55;;
20894;SDS011;10607;42.066;24.742;2022-12-11T08:32:51;14.88;;;7.40;;
20894;SDS011;10607;42.066;24.742;2022-12-11T08:35:17;13.05;;;6.38;;
20894;SDS011;10607;42.066;24.742;2022-12-11T08:37:42;14.57;;;6.93;;
20894;SDS011;10607;42.066;24.742;2022-12-11T08:40:07;12.00;;;6.68;;
20894;SDS011;10607;42.066;24.742;2022-12-11T08:42:33;10.68;;;6.65;;
20894;SDS011;10607;42.066;24.742;2022-12-11T08:44:59;61.92;;;21.70;;
20894;SDS011;10607;42.066;24.742;2022-12-11T08:47:24;79.47;;;25.08;;
20894;SDS011;10607;42.066;24.742;2022-12-11T08:49:50;296.63;;;80.63;;
20894;SDS011;10607;42.066;24.742;2022-12-11T08:52:15;62.63;;;23.10;;
20894;SDS011;10607;42.066;24.742;2022-12-11T08:54:40;12.32;;;5.65;;
20894;SDS011;10607;42.066;24.742;2022-12-11T08:57:06;25.88;;;13.18;;
20894;SDS011;10607;42.066;24.742;2022-12-11T08:59:31;43.10;;;26.05;;
20894;SDS011;10607;42.066;24.742;2022-12-11T09:01:56;13.48;;;8.00;;
20894;SDS011;10607;42.066;24.742;2022-12-11T09:04:22;13.95;;;6.88;;
20894;SDS011;10607;42.066;24.742;2022-12-11T09:06:47;16.13;;;7.30;;
20894;SDS011;10607;42.066;24.742;2022-12-11T09:09:13;16.50;;;6.78;;
20894;SDS011;10607;42.066;24.742;2022-12-11T09:11:38;17.70;;;6.70;;
20894;SDS011;10607;42.066;24.742;2022-12-11T09:14:04;14.82;;;7.60;;
20894;SDS011;10607;42.066;24.742;2022-12-11T09:16:30;19.63;;;8.52;;
20894;SDS011;10607;42.066;24.742;2022-12-11T09:18:56;18.15;;;9.88;;
20894;SDS011;10607;42.066;24.742;2022-12-11T09:21:23;40.60;;;15.88;;
20894;SDS011;10607;42.066;24.742;2022-12-11T09:23:51;53.78;;;17.77;;
20894;SDS011;10607;42.066;24.742;2022-12-11T09:26:17;50.10;;;17.00;;
20894;SDS011;10607;42.066;24.742;2022-12-11T09:28:42;26.50;;;10.77;;
20894;SDS011;10607;42.066;24.742;2022-12-11T09:31:12;22.58;;;8.68;;
20894;SDS011;10607;42.066;24.742;2022-12-11T09:33:38;7.97;;;4.55;;
20894;SDS011;10607;42.066;24.742;2022-12-11T09:36:03;12.15;;;4.50;;
20894;SDS011;10607;42.066;24.742;2022-12-11T09:38:29;12.38;;;5.68;;
20894;SDS011;10607;42.066;24.742;2022-12-11T09:40:55;17.00;;;8.95;;
20894;SDS011;10607;42.066;24.742;2022-12-11T09:43:31;11.48;;;4.22;;
20894;SDS011;10607;42.066;24.742;2022-12-11T09:46:00;14.90;;;5.90;;
20894;SDS011;10607;42.066;24.742;2022-12-11T09:48:27;14.50;;;5.80;;
20894;SDS011;10607;42.066;24.742;2022-12-11T09:50:53;10.30;;;4.93;;
20894;SDS011;10607;42.066;24.742;2022-12-11T09:53:21;12.02;;;4.75;;
20894;SDS011;10607;42.066;24.742;2022-12-11T09:55:54;12.13;;;4.40;;
20894;SDS011;10607;42.066;24.742;2022-12-11T10:00:46;12.73;;;4.80;;
20894;SDS011;10607;42.066;24.742;2022-12-11T10:05:49;10.80;;;4.35;;
20894;SDS011;10607;42.066;24.742;2022-12-11T10:10:42;10.05;;;3.10;;
20894;SDS011;10607;42.066;24.742;2022-12-11T10:13:45;7.60;;;2.25;;
20894;SDS011;10607;42.066;24.742;2022-12-11T10:16:04;4.72;;;1.83;;
20894;SDS011;10607;42.066;24.742;2022-12-11T10:18:34;2.10;;;1.30;;
20894;SDS011;10607;42.066;24.742;2022-12-11T10:21:00;7.10;;;1.10;;
20894;SDS011;10607;42.066;24.742;2022-12-11T10:23:37;5.97;;;1.13;;
20894;SDS011;10607;42.066;24.742;2022-12-11T10:28:29;8.93;;;3.80;;
20894;SDS011;10607;42.066;24.742;2022-12-11T10:33:32;13.38;;;3.83;;
20894;SDS011;10607;42.066;24.742;2022-12-11T10:35:59;38.92;;;19.02;;
20894;SDS011;10607;42.066;24.742;2022-12-11T10:38:31;26.90;;;11.63;;
20894;SDS011;10607;42.066;24.742;2022-12-11T10:41:01;11.18;;;6.10;;
20894;SDS011;10607;42.066;24.742;2022-12-11T10:43:37;8.63;;;4.47;;
20894;SDS011;10607;42.066;24.742;2022-12-11T10:46:04;11.38;;;4.45;;
20894;SDS011;10607;42.066;24.742;2022-12-11T10:48:29;7.78;;;3.90;;
20894;SDS011;10607;42.066;24.742;2022-12-11T10:50:59;10.80;;;5.00;;
20894;SDS011;10607;42.066;24.742;2022-12-11T10:53:24;12.15;;;2.83;;
20894;SDS011;10607;42.066;24.742;2022-12-11T10:55:50;10.80;;;3.85;;
20894;SDS011;10607;42.066;24.742;2022-12-11T10:58:17;8.82;;;3.40;;
20894;SDS011;10607;42.066;24.742;2022-12-11T11:00:43;10.82;;;4.20;;
20894;SDS011;10607;42.066;24.742;2022-12-11T11:03:21;13.68;;;3.15;;
20894;SDS011;10607;42.066;24.742;2022-12-11T11:05:47;9.38;;;3.33;;
20894;SDS011;10607;42.066;24.742;2022-12-11T11:10:56;12.13;;;2.85;;
20894;SDS011;10607;42.066;24.742;2022-12-11T11:13:22;8.45;;;2.15;;
20894;SDS011;10607;42.066;24.742;2022-12-11T11:15:47;9.98;;;2.55;;
20894;SDS011;10607;42.066;24.742;2022-12-11T11:18:16;9.23;;;1.92;;
20894;SDS011;10607;42.066;24.742;2022-12-11T11:20:45;8.80;;;2.03;;
20894;SDS011;10607;42.066;24.742;2022-12-11T11:23:12;7.10;;;2.20;;
20894;SDS011;10607;42.066;24.742;2022-12-11T11:25:38;7.72;;;2.35;;
20894;SDS011;10607;42.066;24.742;2022-12-11T11:28:05;9.10;;;2.20;;
20894;SDS011;10607;42.066;24.742;2022-12-11T11:30:34;12.63;;;2.95;;
20894;SDS011;10607;42.066;24.742;2022-12-11T11:33:11;20.65;;;8.63;;
20894;SDS011;10607;42.066;24.742;2022-12-11T11:35:37;42.17;;;14.93;;
20894;SDS011;10607;42.066;24.742;2022-12-11T11:38:04;16.02;;;3.70;;
20894;SDS011;10607;42.066;24.742;2022-12-11T11:40:41;8.98;;;1.70;;
20894;SDS011;10607;42.066;24.742;2022-12-11T11:43:16;10.65;;;1.85;;
20894;SDS011;10607;42.066;24.742;2022-12-11T11:51:15;3.75;;;0.80;;
20894;SDS011;10607;42.066;24.742;2022-12-11T11:53:40;3.17;;;1.60;;
20894;SDS011;10607;42.066;24.742;2022-12-11T11:56:26;7.93;;;2.30;;
20894;SDS011;10607;42.066;24.742;2022-12-11T11:58:58;14.45;;;2.28;;
20894;SDS011;10607;42.066;24.742;2022-12-11T12:01:26;12.35;;;3.10;;
20894;SDS011;10607;42.066;24.742;2022-12-11T12:03:52;7.53;;;2.67;;
20894;SDS011;10607;42.066;24.742;2022-12-11T12:06:30;8.95;;;2.17;;
20894;SDS011;10607;42.066;24.742;2022-12-11T12:09:12;12.50;;;4.88;;
20894;SDS011;10607;42.066;24.742;2022-12-11T12:24:45;17.80;;;5.82;;
20894;SDS011;10607;42.066;24.742;2022-12-11T12:27:26;17.85;;;4.25;;
20894;SDS011;10607;42.066;24.742;2022-12-11T12:34:56;14.20;;;4.22;;
20894;SDS011;10607;42.066;24.742;2022-12-11T12:40:01;8.15;;;3.17;;
20894;SDS011;10607;42.066;24.742;2022-12-11T12:42:41;10.65;;;2.85;;
20894;SDS011;10607;42.066;24.742;2022-12-11T12:47:38;18.15;;;3.92;;
20894;SDS011;10607;42.066;24.742;2022-12-11T12:50:09;11.15;;;5.05;;
20894;SDS011;10607;42.066;24.742;2022-12-11T12:52:35;10.35;;;4.30;;
20894;SDS011;10607;42.066;24.742;2022-12-11T13:00:12;41.10;;;14.70;;
20894;SDS011;10607;42.066;24.742;2022-12-11T13:02:45;20.25;;;8.18;;
20894;SDS011;10607;42.066;24.742;2022-12-11T13:05:20;69.82;;;23.10;;
20894;SDS011;10607;42.066;24.742;2022-12-11T13:08:02;16.60;;;5.47;;
20894;SDS011;10607;42.066;24.742;2022-12-11T13:10:35;17.33;;;5.93;;
20894;SDS011;10607;42.066;24.742;2022-12-11T13:13:02;9.63;;;4.20;;
20894;SDS011;10607;42.066;24.742;2022-12-11T13:15:29;13.02;;;3.67;;
20894;SDS011;10607;42.066;24.742;2022-12-11T13:17:55;12.45;;;3.83;;
20894;SDS011;10607;42.066;24.742;2022-12-11T13:20:21;6.55;;;3.28;;
20894;SDS011;10607;42.066;24.742;2022-12-11T13:25:20;7.50;;;4.10;;
20894;SDS011;10607;42.066;24.742;2022-12-11T13:27:46;5.68;;;1.65;;
20894;SDS011;10607;42.066;24.742;2022-12-11T13:32:43;4.50;;;1.10;;
20894;SDS011;10607;42.066;24.742;2022-12-11T13:35:14;0.43;;;0.40;;
20894;SDS011;10607;42.066;24.742;2022-12-11T13:37:40;5.38;;;0.45;;
20894;SDS011;10607;42.066;24.742;2022-12-11T13:45:21;2.40;;;0.30;;
20894;SDS011;10607;42.066;24.742;2022-12-11T13:47:46;2.47;;;0.60;;
20894;SDS011;10607;42.066;24.742;2022-12-11T13:50:23;2.70;;;0.40;;
20894;SDS011;10607;42.066;24.742;2022-12-11T13:52:56;0.82;;;0.47;;
20894;SDS011;10607;42.066;24.742;2022-12-11T13:55:32;0.85;;;0.30;;
20894;SDS011;10607;42.066;24.742;2022-12-11T13:57:57;1.05;;;0.40;;
20894;SDS011;10607;42.066;24.742;2022-12-11T14:00:24;5.45;;;2.03;;
20894;SDS011;10607;42.066;24.742;2022-12-11T14:02:50;4.82;;;0.50;;
20894;SDS011;10607;42.066;24.742;2022-12-11T14:05:16;3.53;;;1.17;;
20894;SDS011;10607;42.066;24.742;2022-12-11T14:07:45;2.47;;;0.80;;
20894;SDS011;10607;42.066;24.742;2022-12-11T14:12:41;1.38;;;0.30;;
20894;SDS011;10607;42.066;24.742;2022-12-11T14:15:10;1.45;;;0.20;;
20894;SDS011;10607;42.066;24.742;2022-12-11T14:17:38;3.13;;;0.40;;
20894;SDS011;10607;42.066;24.742;2022-12-11T14:20:05;1.20;;;0.40;;
20894;SDS011;10607;42.066;24.742;2022-12-11T14:22:31;11.95;;;1.42;;
20894;SDS011;10607;42.066;24.742;2022-12-11T14:24:58;2.92;;;0.60;;
20894;SDS011;10607;42.066;24.742;2022-12-11T14:27:23;0.68;;;0.30;;
20894;SDS011;10607;42.066;24.742;2022-12-11T14:29:49;14.35;;;11.77;;
20894;SDS011;10607;42.066;24.742;2022-12-11T14:32:19;3.78;;;0.60;;
20894;SDS011;10607;42.066;24.742;2022-12-11T14:34:46;2.83;;;0.55;;
20894;SDS011;10607;42.066;24.742;2022-12-11T14:37:13;5.95;;;0.65;;
20894;SDS011;10607;42.066;24.742;2022-12-11T14:39:41;1.55;;;0.93;;
20894;SDS011;10607;42.066;24.742;2022-12-11T14:42:13;0.30;;;0.30;;
20894;SDS011;10607;42.066;24.742;2022-12-11T14:44:55;2.10;;;1.02;;
20894;SDS011;10607;42.066;24.742;2022-12-11T14:47:23;89.57;;;28.15;;
20894;SDS011;10607;42.066;24.742;2022-12-11T14:52:22;41.17;;;13.45;;
20894;SDS011;10607;42.066;24.742;2022-12-11T14:54:49;17.92;;;8.82;;
20894;SDS011;10607;42.066;24.742;2022-12-11T14:57:17;22.23;;;9.75;;
20894;SDS011;10607;42.066;24.742;2022-12-11T14:59:44;9.80;;;5.78;;
20894;SDS011;10607;42.066;24.742;2022-12-11T15:07:34;14.88;;;6.47;;
20894;SDS011;10607;42.066;24.742;2022-12-11T15:10:00;6.72;;;1.52;;
20894;SDS011;10607;42.066;24.742;2022-12-11T15:12:25;2.05;;;0.90;;
20894;SDS011;10607;42.066;24.742;2022-12-11T15:14:56;1.40;;;0.70;;
20894;SDS011;10607;42.066;24.742;2022-12-11T15:17:22;69.20;;;26.00;;
20894;SDS011;10607;42.066;24.742;2022-12-11T15:19:49;46.85;;;18.40;;
20894;SDS011;10607;42.066;24.742;2022-12-11T15:22:15;17.55;;;9.35;;
20894;SDS011;10607;42.066;24.742;2022-12-11T15:24:42;87.72;;;35.13;;
20894;SDS011;10607;42.066;24.742;2022-12-11T15:29:45;0.80;;;0.40;;
20894;SDS011;10607;42.066;24.742;2022-12-11T15:39:43;3.80;;;1.40;;
20894;SDS011;10607;42.066;24.742;2022-12-11T15:42:08;3.95;;;1.25;;
20894;SDS011;10607;42.066;24.742;2022-12-11T15:44:35;2.17;;;1.17;;
20894;SDS011;10607;42.066;24.742;2022-12-11T15:47:09;7.47;;;1.20;;
20894;SDS011;10607;42.066;24.742;2022-12-11T15:49:35;2.55;;;1.20;;
20894;SDS011;10607;42.066;24.742;2022-12-11T15:52:00;1.98;;;0.50;;
20894;SDS011;10607;42.066;24.742;2022-12-11T15:54:25;3.33;;;0.95;;
20894;SDS011;10607;42.066;24.742;2022-12-11T15:56:50;0.80;;;0.70;;
20894;SDS011;10607;42.066;24.742;2022-12-11T15:59:16;1.58;;;1.08;;
20894;SDS011;10607;42.066;24.742;2022-12-11T16:01:42;5.82;;;2.45;;